<?xml version="1.0" encoding="UTF-8" standalone="no" ?>
<gpx xmlns="http://www.topografix.com/GPX/1/1" xmlns:xsi="http://www.w3.org/2001/XMLSchema-instance" xsi:schemaLocation="http://www.topografix.com/GPX/1/1 http://www.topografix.com/GPX/1/1/gpx.xsd" version="1.1" creator="VisuGPX - https://www.visugpx.com">
  <metadata>
    <name>20200708 - test edge 500</name>
  </metadata>
  <trk>
    <name><![CDATA[2020-07-08 15:27:55]]></name>
    <trkseg>
      <trkpt lat="50.12478" lon="3.67809">
        <ele>137.61</ele>
        <time>2020-07-08T13:13:40Z</time>
      </trkpt>
      <trkpt lat="50.12478" lon="3.67809">
        <ele>137.61</ele>
        <time>2020-07-08T13:13:41Z</time>
      </trkpt>
      <trkpt lat="50.12484" lon="3.67816">
        <ele>137.13</ele>
        <time>2020-07-08T13:13:49Z</time>
      </trkpt>
      <trkpt lat="50.12486" lon="3.67819">
        <ele>137.13</ele>
        <time>2020-07-08T13:13:50Z</time>
      </trkpt>
      <trkpt lat="50.12501" lon="3.67836">
        <ele>137.13</ele>
        <time>2020-07-08T13:13:57Z</time>
      </trkpt>
      <trkpt lat="50.12514" lon="3.67852">
        <ele>137.13</ele>
        <time>2020-07-08T13:14:02Z</time>
      </trkpt>
      <trkpt lat="50.12531" lon="3.67871">
        <ele>137.13</ele>
        <time>2020-07-08T13:14:07Z</time>
      </trkpt>
      <trkpt lat="50.12538" lon="3.67878">
        <ele>137.13</ele>
        <time>2020-07-08T13:14:09Z</time>
      </trkpt>
      <trkpt lat="50.12554" lon="3.67888">
        <ele>137.13</ele>
        <time>2020-07-08T13:14:13Z</time>
      </trkpt>
      <trkpt lat="50.12558" lon="3.67891">
        <ele>139.05</ele>
        <time>2020-07-08T13:14:14Z</time>
      </trkpt>
      <trkpt lat="50.12569" lon="3.67901">
        <ele>137.13</ele>
        <time>2020-07-08T13:14:17Z</time>
      </trkpt>
      <trkpt lat="50.12573" lon="3.67905">
        <ele>137.13</ele>
        <time>2020-07-08T13:14:18Z</time>
      </trkpt>
      <trkpt lat="50.12583" lon="3.67919">
        <ele>137.13</ele>
        <time>2020-07-08T13:14:21Z</time>
      </trkpt>
      <trkpt lat="50.12586" lon="3.67923">
        <ele>137.13</ele>
        <time>2020-07-08T13:14:22Z</time>
      </trkpt>
      <trkpt lat="50.12589" lon="3.67927">
        <ele>137.13</ele>
        <time>2020-07-08T13:14:23Z</time>
      </trkpt>
      <trkpt lat="50.12592" lon="3.67932">
        <ele>137.13</ele>
        <time>2020-07-08T13:14:24Z</time>
      </trkpt>
      <trkpt lat="50.12594" lon="3.67937">
        <ele>137.13</ele>
        <time>2020-07-08T13:14:25Z</time>
      </trkpt>
      <trkpt lat="50.12619" lon="3.67985">
        <ele>137.13</ele>
        <time>2020-07-08T13:14:34Z</time>
      </trkpt>
      <trkpt lat="50.12661" lon="3.68074">
        <ele>137.13</ele>
        <time>2020-07-08T13:14:48Z</time>
      </trkpt>
      <trkpt lat="50.12682" lon="3.68126">
        <ele>136.64</ele>
        <time>2020-07-08T13:14:56Z</time>
      </trkpt>
      <trkpt lat="50.12689" lon="3.68136">
        <ele>136.64</ele>
        <time>2020-07-08T13:14:58Z</time>
      </trkpt>
      <trkpt lat="50.12713" lon="3.68186">
        <ele>138.09</ele>
        <time>2020-07-08T13:15:06Z</time>
      </trkpt>
      <trkpt lat="50.12721" lon="3.68205">
        <ele>138.09</ele>
        <time>2020-07-08T13:15:09Z</time>
      </trkpt>
      <trkpt lat="50.12728" lon="3.68225">
        <ele>138.09</ele>
        <time>2020-07-08T13:15:12Z</time>
      </trkpt>
      <trkpt lat="50.12737" lon="3.68253">
        <ele>138.09</ele>
        <time>2020-07-08T13:15:16Z</time>
      </trkpt>
      <trkpt lat="50.1274" lon="3.6826">
        <ele>138.09</ele>
        <time>2020-07-08T13:15:17Z</time>
      </trkpt>
      <trkpt lat="50.12781" lon="3.68383">
        <ele>138.57</ele>
        <time>2020-07-08T13:15:33Z</time>
      </trkpt>
      <trkpt lat="50.12798" lon="3.6844">
        <ele>139.05</ele>
        <time>2020-07-08T13:15:42Z</time>
      </trkpt>
      <trkpt lat="50.12798" lon="3.68445">
        <ele>139.05</ele>
        <time>2020-07-08T13:15:43Z</time>
      </trkpt>
      <trkpt lat="50.12795" lon="3.6845">
        <ele>139.05</ele>
        <time>2020-07-08T13:15:44Z</time>
      </trkpt>
      <trkpt lat="50.12792" lon="3.68453">
        <ele>139.05</ele>
        <time>2020-07-08T13:15:45Z</time>
      </trkpt>
      <trkpt lat="50.12788" lon="3.68457">
        <ele>139.05</ele>
        <time>2020-07-08T13:15:46Z</time>
      </trkpt>
      <trkpt lat="50.12784" lon="3.6846">
        <ele>139.05</ele>
        <time>2020-07-08T13:15:47Z</time>
      </trkpt>
      <trkpt lat="50.12747" lon="3.6849">
        <ele>137.61</ele>
        <time>2020-07-08T13:15:55Z</time>
      </trkpt>
      <trkpt lat="50.12738" lon="3.68499">
        <ele>137.13</ele>
        <time>2020-07-08T13:15:57Z</time>
      </trkpt>
      <trkpt lat="50.12735" lon="3.68505">
        <ele>137.13</ele>
        <time>2020-07-08T13:15:58Z</time>
      </trkpt>
      <trkpt lat="50.12734" lon="3.68514">
        <ele>137.13</ele>
        <time>2020-07-08T13:15:59Z</time>
      </trkpt>
      <trkpt lat="50.12735" lon="3.68522">
        <ele>137.13</ele>
        <time>2020-07-08T13:16:00Z</time>
      </trkpt>
      <trkpt lat="50.12738" lon="3.68528">
        <ele>137.13</ele>
        <time>2020-07-08T13:16:01Z</time>
      </trkpt>
      <trkpt lat="50.12741" lon="3.68533">
        <ele>137.13</ele>
        <time>2020-07-08T13:16:02Z</time>
      </trkpt>
      <trkpt lat="50.12744" lon="3.68539">
        <ele>137.13</ele>
        <time>2020-07-08T13:16:03Z</time>
      </trkpt>
      <trkpt lat="50.1275" lon="3.68551">
        <ele>137.13</ele>
        <time>2020-07-08T13:16:05Z</time>
      </trkpt>
      <trkpt lat="50.12752" lon="3.68558">
        <ele>137.13</ele>
        <time>2020-07-08T13:16:06Z</time>
      </trkpt>
      <trkpt lat="50.12751" lon="3.68566">
        <ele>137.13</ele>
        <time>2020-07-08T13:16:07Z</time>
      </trkpt>
      <trkpt lat="50.12749" lon="3.68573">
        <ele>137.13</ele>
        <time>2020-07-08T13:16:08Z</time>
      </trkpt>
      <trkpt lat="50.12746" lon="3.68578">
        <ele>137.13</ele>
        <time>2020-07-08T13:16:09Z</time>
      </trkpt>
      <trkpt lat="50.12742" lon="3.68584">
        <ele>137.13</ele>
        <time>2020-07-08T13:16:10Z</time>
      </trkpt>
      <trkpt lat="50.12735" lon="3.68596">
        <ele>137.13</ele>
        <time>2020-07-08T13:16:12Z</time>
      </trkpt>
      <trkpt lat="50.12704" lon="3.68651">
        <ele>137.13</ele>
        <time>2020-07-08T13:16:21Z</time>
      </trkpt>
      <trkpt lat="50.12704" lon="3.68659">
        <ele>137.13</ele>
        <time>2020-07-08T13:16:22Z</time>
      </trkpt>
      <trkpt lat="50.12706" lon="3.68664">
        <ele>137.13</ele>
        <time>2020-07-08T13:16:23Z</time>
      </trkpt>
      <trkpt lat="50.12728" lon="3.68709">
        <ele>137.13</ele>
        <time>2020-07-08T13:16:32Z</time>
      </trkpt>
      <trkpt lat="50.12726" lon="3.68714">
        <ele>137.13</ele>
        <time>2020-07-08T13:16:33Z</time>
      </trkpt>
      <trkpt lat="50.12724" lon="3.68718">
        <ele>137.13</ele>
        <time>2020-07-08T13:16:34Z</time>
      </trkpt>
      <trkpt lat="50.12721" lon="3.68722">
        <ele>137.13</ele>
        <time>2020-07-08T13:16:35Z</time>
      </trkpt>
      <trkpt lat="50.12718" lon="3.68727">
        <ele>137.13</ele>
        <time>2020-07-08T13:16:36Z</time>
      </trkpt>
      <trkpt lat="50.12714" lon="3.68731">
        <ele>137.13</ele>
        <time>2020-07-08T13:16:37Z</time>
      </trkpt>
      <trkpt lat="50.12706" lon="3.68739">
        <ele>137.13</ele>
        <time>2020-07-08T13:16:39Z</time>
      </trkpt>
      <trkpt lat="50.12703" lon="3.68744">
        <ele>137.13</ele>
        <time>2020-07-08T13:16:40Z</time>
      </trkpt>
      <trkpt lat="50.12699" lon="3.68749">
        <ele>137.13</ele>
        <time>2020-07-08T13:16:41Z</time>
      </trkpt>
      <trkpt lat="50.12682" lon="3.6877">
        <ele>138.57</ele>
        <time>2020-07-08T13:16:45Z</time>
      </trkpt>
      <trkpt lat="50.12652" lon="3.68809">
        <ele>139.53</ele>
        <time>2020-07-08T13:16:53Z</time>
      </trkpt>
      <trkpt lat="50.12648" lon="3.68811">
        <ele>139.53</ele>
        <time>2020-07-08T13:16:54Z</time>
      </trkpt>
      <trkpt lat="50.12643" lon="3.68811">
        <ele>139.53</ele>
        <time>2020-07-08T13:16:55Z</time>
      </trkpt>
      <trkpt lat="50.12639" lon="3.68807">
        <ele>139.53</ele>
        <time>2020-07-08T13:16:56Z</time>
      </trkpt>
      <trkpt lat="50.12636" lon="3.68801">
        <ele>138.09</ele>
        <time>2020-07-08T13:16:57Z</time>
      </trkpt>
      <trkpt lat="50.12633" lon="3.68795">
        <ele>137.61</ele>
        <time>2020-07-08T13:16:58Z</time>
      </trkpt>
      <trkpt lat="50.1263" lon="3.68788">
        <ele>137.61</ele>
        <time>2020-07-08T13:16:59Z</time>
      </trkpt>
      <trkpt lat="50.12591" lon="3.68711">
        <ele>137.13</ele>
        <time>2020-07-08T13:17:10Z</time>
      </trkpt>
      <trkpt lat="50.12587" lon="3.68707">
        <ele>136.16</ele>
        <time>2020-07-08T13:17:11Z</time>
      </trkpt>
      <trkpt lat="50.12581" lon="3.68705">
        <ele>136.64</ele>
        <time>2020-07-08T13:17:12Z</time>
      </trkpt>
      <trkpt lat="50.12575" lon="3.68705">
        <ele>136.64</ele>
        <time>2020-07-08T13:17:13Z</time>
      </trkpt>
      <trkpt lat="50.12571" lon="3.68706">
        <ele>136.64</ele>
        <time>2020-07-08T13:17:14Z</time>
      </trkpt>
      <trkpt lat="50.12566" lon="3.68708">
        <ele>136.64</ele>
        <time>2020-07-08T13:17:15Z</time>
      </trkpt>
      <trkpt lat="50.12562" lon="3.68711">
        <ele>136.64</ele>
        <time>2020-07-08T13:17:16Z</time>
      </trkpt>
      <trkpt lat="50.12557" lon="3.68712">
        <ele>136.64</ele>
        <time>2020-07-08T13:17:17Z</time>
      </trkpt>
      <trkpt lat="50.12552" lon="3.68714">
        <ele>136.64</ele>
        <time>2020-07-08T13:17:18Z</time>
      </trkpt>
      <trkpt lat="50.12539" lon="3.6872">
        <ele>136.64</ele>
        <time>2020-07-08T13:17:21Z</time>
      </trkpt>
      <trkpt lat="50.12535" lon="3.68722">
        <ele>136.64</ele>
        <time>2020-07-08T13:17:22Z</time>
      </trkpt>
      <trkpt lat="50.1253" lon="3.68724">
        <ele>136.64</ele>
        <time>2020-07-08T13:17:23Z</time>
      </trkpt>
      <trkpt lat="50.12456" lon="3.68755">
        <ele>136.64</ele>
        <time>2020-07-08T13:17:40Z</time>
      </trkpt>
      <trkpt lat="50.12441" lon="3.68763">
        <ele>137.61</ele>
        <time>2020-07-08T13:17:43Z</time>
      </trkpt>
      <trkpt lat="50.12436" lon="3.68767">
        <ele>137.61</ele>
        <time>2020-07-08T13:17:44Z</time>
      </trkpt>
      <trkpt lat="50.12431" lon="3.68772">
        <ele>137.61</ele>
        <time>2020-07-08T13:17:45Z</time>
      </trkpt>
      <trkpt lat="50.12366" lon="3.6886">
        <ele>137.61</ele>
        <time>2020-07-08T13:18:01Z</time>
      </trkpt>
      <trkpt lat="50.12296" lon="3.68957">
        <ele>140.49</ele>
        <time>2020-07-08T13:18:19Z</time>
      </trkpt>
      <trkpt lat="50.12249" lon="3.69018">
        <ele>140.49</ele>
        <time>2020-07-08T13:18:31Z</time>
      </trkpt>
      <trkpt lat="50.12222" lon="3.6906">
        <ele>140.97</ele>
        <time>2020-07-08T13:18:39Z</time>
      </trkpt>
      <trkpt lat="50.12215" lon="3.69068">
        <ele>141.45</ele>
        <time>2020-07-08T13:18:42Z</time>
      </trkpt>
      <trkpt lat="50.12217" lon="3.69069">
        <ele>141.45</ele>
        <time>2020-07-08T13:18:45Z</time>
      </trkpt>
      <trkpt lat="50.12218" lon="3.69067">
        <ele>140.97</ele>
        <time>2020-07-08T13:18:46Z</time>
      </trkpt>
      <trkpt lat="50.12218" lon="3.69064">
        <ele>140.97</ele>
        <time>2020-07-08T13:18:47Z</time>
      </trkpt>
      <trkpt lat="50.12217" lon="3.69061">
        <ele>140.97</ele>
        <time>2020-07-08T13:18:48Z</time>
      </trkpt>
      <trkpt lat="50.12217" lon="3.69059">
        <ele>141.45</ele>
        <time>2020-07-08T13:18:49Z</time>
      </trkpt>
      <trkpt lat="50.12215" lon="3.69057">
        <ele>140.97</ele>
        <time>2020-07-08T13:18:50Z</time>
      </trkpt>
      <trkpt lat="50.12214" lon="3.69054">
        <ele>141.45</ele>
        <time>2020-07-08T13:18:51Z</time>
      </trkpt>
      <trkpt lat="50.12203" lon="3.69044">
        <ele>140.97</ele>
        <time>2020-07-08T13:18:57Z</time>
      </trkpt>
      <trkpt lat="50.12202" lon="3.69041">
        <ele>140.97</ele>
        <time>2020-07-08T13:18:58Z</time>
      </trkpt>
      <trkpt lat="50.12201" lon="3.69039">
        <ele>140.97</ele>
        <time>2020-07-08T13:18:59Z</time>
      </trkpt>
      <trkpt lat="50.122" lon="3.69037">
        <ele>140.97</ele>
        <time>2020-07-08T13:19:09Z</time>
      </trkpt>
      <trkpt lat="50.12184" lon="3.69022">
        <ele>141.45</ele>
        <time>2020-07-08T13:19:23Z</time>
      </trkpt>
      <trkpt lat="50.12181" lon="3.69018">
        <ele>141.45</ele>
        <time>2020-07-08T13:19:24Z</time>
      </trkpt>
      <trkpt lat="50.12177" lon="3.69014">
        <ele>141.45</ele>
        <time>2020-07-08T13:19:25Z</time>
      </trkpt>
      <trkpt lat="50.12172" lon="3.69011">
        <ele>141.45</ele>
        <time>2020-07-08T13:19:26Z</time>
      </trkpt>
      <trkpt lat="50.12168" lon="3.6901">
        <ele>141.45</ele>
        <time>2020-07-08T13:19:27Z</time>
      </trkpt>
      <trkpt lat="50.12164" lon="3.69014">
        <ele>141.45</ele>
        <time>2020-07-08T13:19:28Z</time>
      </trkpt>
      <trkpt lat="50.12161" lon="3.69017">
        <ele>141.45</ele>
        <time>2020-07-08T13:19:29Z</time>
      </trkpt>
      <trkpt lat="50.12158" lon="3.69023">
        <ele>141.45</ele>
        <time>2020-07-08T13:19:30Z</time>
      </trkpt>
      <trkpt lat="50.12154" lon="3.69027">
        <ele>141.45</ele>
        <time>2020-07-08T13:19:31Z</time>
      </trkpt>
      <trkpt lat="50.12151" lon="3.69033">
        <ele>141.45</ele>
        <time>2020-07-08T13:19:32Z</time>
      </trkpt>
      <trkpt lat="50.12143" lon="3.69043">
        <ele>141.45</ele>
        <time>2020-07-08T13:19:34Z</time>
      </trkpt>
      <trkpt lat="50.12136" lon="3.69055">
        <ele>142.41</ele>
        <time>2020-07-08T13:19:36Z</time>
      </trkpt>
      <trkpt lat="50.12099" lon="3.69107">
        <ele>143.85</ele>
        <time>2020-07-08T13:19:48Z</time>
      </trkpt>
      <trkpt lat="50.12078" lon="3.69151">
        <ele>143.85</ele>
        <time>2020-07-08T13:19:59Z</time>
      </trkpt>
      <trkpt lat="50.12081" lon="3.69156">
        <ele>143.85</ele>
        <time>2020-07-08T13:20:00Z</time>
      </trkpt>
      <trkpt lat="50.12084" lon="3.69158">
        <ele>143.85</ele>
        <time>2020-07-08T13:20:01Z</time>
      </trkpt>
      <trkpt lat="50.1211" lon="3.69178">
        <ele>143.85</ele>
        <time>2020-07-08T13:20:07Z</time>
      </trkpt>
      <trkpt lat="50.12115" lon="3.69182">
        <ele>143.85</ele>
        <time>2020-07-08T13:20:08Z</time>
      </trkpt>
      <trkpt lat="50.12129" lon="3.69192">
        <ele>142.41</ele>
        <time>2020-07-08T13:20:11Z</time>
      </trkpt>
      <trkpt lat="50.12197" lon="3.69255">
        <ele>141.45</ele>
        <time>2020-07-08T13:20:25Z</time>
      </trkpt>
      <trkpt lat="50.12203" lon="3.69262">
        <ele>141.45</ele>
        <time>2020-07-08T13:20:26Z</time>
      </trkpt>
      <trkpt lat="50.12206" lon="3.69267">
        <ele>140.97</ele>
        <time>2020-07-08T13:20:27Z</time>
      </trkpt>
      <trkpt lat="50.12243" lon="3.69333">
        <ele>140.97</ele>
        <time>2020-07-08T13:20:37Z</time>
      </trkpt>
      <trkpt lat="50.12248" lon="3.69348">
        <ele>140.97</ele>
        <time>2020-07-08T13:20:39Z</time>
      </trkpt>
      <trkpt lat="50.1225" lon="3.69355">
        <ele>140.97</ele>
        <time>2020-07-08T13:20:40Z</time>
      </trkpt>
      <trkpt lat="50.12252" lon="3.6936">
        <ele>140.97</ele>
        <time>2020-07-08T13:20:41Z</time>
      </trkpt>
      <trkpt lat="50.12253" lon="3.69363">
        <ele>140.97</ele>
        <time>2020-07-08T13:20:42Z</time>
      </trkpt>
      <trkpt lat="50.12253" lon="3.69365">
        <ele>140.97</ele>
        <time>2020-07-08T13:20:43Z</time>
      </trkpt>
      <trkpt lat="50.12253" lon="3.69367">
        <ele>140.49</ele>
        <time>2020-07-08T13:20:44Z</time>
      </trkpt>
      <trkpt lat="50.12253" lon="3.69371">
        <ele>140.49</ele>
        <time>2020-07-08T13:20:45Z</time>
      </trkpt>
      <trkpt lat="50.12251" lon="3.69376">
        <ele>140.49</ele>
        <time>2020-07-08T13:20:46Z</time>
      </trkpt>
      <trkpt lat="50.1225" lon="3.69379">
        <ele>140.49</ele>
        <time>2020-07-08T13:20:47Z</time>
      </trkpt>
      <trkpt lat="50.12247" lon="3.69383">
        <ele>140.49</ele>
        <time>2020-07-08T13:20:48Z</time>
      </trkpt>
      <trkpt lat="50.12244" lon="3.69388">
        <ele>140.49</ele>
        <time>2020-07-08T13:20:49Z</time>
      </trkpt>
      <trkpt lat="50.1224" lon="3.69393">
        <ele>140.49</ele>
        <time>2020-07-08T13:20:50Z</time>
      </trkpt>
      <trkpt lat="50.12206" lon="3.69448">
        <ele>140.49</ele>
        <time>2020-07-08T13:21:00Z</time>
      </trkpt>
      <trkpt lat="50.12205" lon="3.69454">
        <ele>140.49</ele>
        <time>2020-07-08T13:21:01Z</time>
      </trkpt>
      <trkpt lat="50.12207" lon="3.69461">
        <ele>140.49</ele>
        <time>2020-07-08T13:21:02Z</time>
      </trkpt>
      <trkpt lat="50.12213" lon="3.69465">
        <ele>140.49</ele>
        <time>2020-07-08T13:21:03Z</time>
      </trkpt>
      <trkpt lat="50.12216" lon="3.69465">
        <ele>140.49</ele>
        <time>2020-07-08T13:21:04Z</time>
      </trkpt>
      <trkpt lat="50.12221" lon="3.69465">
        <ele>140.49</ele>
        <time>2020-07-08T13:21:05Z</time>
      </trkpt>
      <trkpt lat="50.12254" lon="3.6947">
        <ele>140.49</ele>
        <time>2020-07-08T13:21:11Z</time>
      </trkpt>
      <trkpt lat="50.12344" lon="3.69472">
        <ele>142.41</ele>
        <time>2020-07-08T13:21:28Z</time>
      </trkpt>
      <trkpt lat="50.124" lon="3.69501">
        <ele>143.37</ele>
        <time>2020-07-08T13:21:40Z</time>
      </trkpt>
      <trkpt lat="50.12404" lon="3.69506">
        <ele>143.37</ele>
        <time>2020-07-08T13:21:41Z</time>
      </trkpt>
      <trkpt lat="50.12408" lon="3.69511">
        <ele>143.37</ele>
        <time>2020-07-08T13:21:42Z</time>
      </trkpt>
      <trkpt lat="50.12411" lon="3.69518">
        <ele>143.37</ele>
        <time>2020-07-08T13:21:43Z</time>
      </trkpt>
      <trkpt lat="50.12414" lon="3.69525">
        <ele>143.37</ele>
        <time>2020-07-08T13:21:44Z</time>
      </trkpt>
      <trkpt lat="50.12416" lon="3.69531">
        <ele>143.37</ele>
        <time>2020-07-08T13:21:45Z</time>
      </trkpt>
      <trkpt lat="50.12418" lon="3.69539">
        <ele>143.37</ele>
        <time>2020-07-08T13:21:46Z</time>
      </trkpt>
      <trkpt lat="50.12446" lon="3.69623">
        <ele>143.37</ele>
        <time>2020-07-08T13:21:58Z</time>
      </trkpt>
      <trkpt lat="50.1245" lon="3.69628">
        <ele>143.37</ele>
        <time>2020-07-08T13:21:59Z</time>
      </trkpt>
      <trkpt lat="50.12457" lon="3.69632">
        <ele>143.37</ele>
        <time>2020-07-08T13:22:00Z</time>
      </trkpt>
      <trkpt lat="50.12463" lon="3.69631">
        <ele>143.37</ele>
        <time>2020-07-08T13:22:01Z</time>
      </trkpt>
      <trkpt lat="50.12466" lon="3.6963">
        <ele>143.37</ele>
        <time>2020-07-08T13:22:02Z</time>
      </trkpt>
      <trkpt lat="50.12471" lon="3.69627">
        <ele>143.37</ele>
        <time>2020-07-08T13:22:03Z</time>
      </trkpt>
      <trkpt lat="50.12492" lon="3.69614">
        <ele>141.93</ele>
        <time>2020-07-08T13:22:07Z</time>
      </trkpt>
      <trkpt lat="50.12555" lon="3.69582">
        <ele>141.45</ele>
        <time>2020-07-08T13:22:18Z</time>
      </trkpt>
      <trkpt lat="50.12639" lon="3.69544">
        <ele>140.49</ele>
        <time>2020-07-08T13:22:34Z</time>
      </trkpt>
      <trkpt lat="50.12648" lon="3.69538">
        <ele>140.49</ele>
        <time>2020-07-08T13:22:36Z</time>
      </trkpt>
      <trkpt lat="50.12652" lon="3.69535">
        <ele>140.49</ele>
        <time>2020-07-08T13:22:37Z</time>
      </trkpt>
      <trkpt lat="50.12655" lon="3.6953">
        <ele>140.49</ele>
        <time>2020-07-08T13:22:38Z</time>
      </trkpt>
      <trkpt lat="50.12662" lon="3.69519">
        <ele>140.49</ele>
        <time>2020-07-08T13:22:40Z</time>
      </trkpt>
      <trkpt lat="50.1268" lon="3.69466">
        <ele>140.01</ele>
        <time>2020-07-08T13:22:48Z</time>
      </trkpt>
      <trkpt lat="50.12711" lon="3.69374">
        <ele>138.57</ele>
        <time>2020-07-08T13:23:02Z</time>
      </trkpt>
      <trkpt lat="50.12726" lon="3.69342">
        <ele>138.09</ele>
        <time>2020-07-08T13:23:07Z</time>
      </trkpt>
      <trkpt lat="50.12729" lon="3.69336">
        <ele>138.09</ele>
        <time>2020-07-08T13:23:08Z</time>
      </trkpt>
      <trkpt lat="50.12781" lon="3.6925">
        <ele>136.64</ele>
        <time>2020-07-08T13:23:22Z</time>
      </trkpt>
      <trkpt lat="50.12812" lon="3.69203">
        <ele>135.68</ele>
        <time>2020-07-08T13:23:30Z</time>
      </trkpt>
      <trkpt lat="50.12814" lon="3.69196">
        <ele>135.68</ele>
        <time>2020-07-08T13:23:31Z</time>
      </trkpt>
      <trkpt lat="50.12814" lon="3.69187">
        <ele>135.68</ele>
        <time>2020-07-08T13:23:32Z</time>
      </trkpt>
      <trkpt lat="50.12811" lon="3.69178">
        <ele>135.68</ele>
        <time>2020-07-08T13:23:33Z</time>
      </trkpt>
      <trkpt lat="50.12808" lon="3.69173">
        <ele>135.68</ele>
        <time>2020-07-08T13:23:34Z</time>
      </trkpt>
      <trkpt lat="50.12805" lon="3.69167">
        <ele>135.68</ele>
        <time>2020-07-08T13:23:35Z</time>
      </trkpt>
      <trkpt lat="50.12785" lon="3.69132">
        <ele>135.68</ele>
        <time>2020-07-08T13:23:41Z</time>
      </trkpt>
      <trkpt lat="50.12783" lon="3.69125">
        <ele>135.68</ele>
        <time>2020-07-08T13:23:42Z</time>
      </trkpt>
      <trkpt lat="50.1278" lon="3.69119">
        <ele>135.68</ele>
        <time>2020-07-08T13:23:43Z</time>
      </trkpt>
      <trkpt lat="50.12761" lon="3.69084">
        <ele>135.68</ele>
        <time>2020-07-08T13:23:49Z</time>
      </trkpt>
      <trkpt lat="50.12758" lon="3.69078">
        <ele>135.68</ele>
        <time>2020-07-08T13:23:50Z</time>
      </trkpt>
      <trkpt lat="50.12712" lon="3.68992">
        <ele>135.68</ele>
        <time>2020-07-08T13:24:06Z</time>
      </trkpt>
      <trkpt lat="50.12664" lon="3.68901">
        <ele>136.64</ele>
        <time>2020-07-08T13:24:22Z</time>
      </trkpt>
      <trkpt lat="50.12648" lon="3.6887">
        <ele>136.64</ele>
        <time>2020-07-08T13:24:28Z</time>
      </trkpt>
      <trkpt lat="50.12645" lon="3.68863">
        <ele>136.64</ele>
        <time>2020-07-08T13:24:29Z</time>
      </trkpt>
      <trkpt lat="50.12644" lon="3.68858">
        <ele>136.64</ele>
        <time>2020-07-08T13:24:30Z</time>
      </trkpt>
      <trkpt lat="50.12643" lon="3.68851">
        <ele>136.64</ele>
        <time>2020-07-08T13:24:31Z</time>
      </trkpt>
      <trkpt lat="50.12644" lon="3.68846">
        <ele>136.64</ele>
        <time>2020-07-08T13:24:32Z</time>
      </trkpt>
      <trkpt lat="50.12645" lon="3.68841">
        <ele>137.61</ele>
        <time>2020-07-08T13:24:33Z</time>
      </trkpt>
      <trkpt lat="50.12646" lon="3.68837">
        <ele>138.09</ele>
        <time>2020-07-08T13:24:34Z</time>
      </trkpt>
      <trkpt lat="50.12646" lon="3.68833">
        <ele>138.09</ele>
        <time>2020-07-08T13:24:35Z</time>
      </trkpt>
      <trkpt lat="50.12651" lon="3.68821">
        <ele>138.57</ele>
        <time>2020-07-08T13:24:38Z</time>
      </trkpt>
      <trkpt lat="50.12708" lon="3.6875">
        <ele>137.61</ele>
        <time>2020-07-08T13:24:52Z</time>
      </trkpt>
      <trkpt lat="50.12712" lon="3.68744">
        <ele>137.61</ele>
        <time>2020-07-08T13:24:53Z</time>
      </trkpt>
      <trkpt lat="50.12778" lon="3.68656">
        <ele>136.64</ele>
        <time>2020-07-08T13:25:09Z</time>
      </trkpt>
      <trkpt lat="50.12793" lon="3.68636">
        <ele>136.64</ele>
        <time>2020-07-08T13:25:13Z</time>
      </trkpt>
      <trkpt lat="50.12796" lon="3.6863">
        <ele>136.64</ele>
        <time>2020-07-08T13:25:14Z</time>
      </trkpt>
      <trkpt lat="50.12812" lon="3.68601">
        <ele>138.09</ele>
        <time>2020-07-08T13:25:19Z</time>
      </trkpt>
      <trkpt lat="50.12814" lon="3.68595">
        <ele>138.09</ele>
        <time>2020-07-08T13:25:20Z</time>
      </trkpt>
      <trkpt lat="50.12846" lon="3.68482">
        <ele>139.05</ele>
        <time>2020-07-08T13:25:36Z</time>
      </trkpt>
      <trkpt lat="50.12856" lon="3.68443">
        <ele>139.53</ele>
        <time>2020-07-08T13:25:42Z</time>
      </trkpt>
      <trkpt lat="50.12868" lon="3.68404">
        <ele>140.01</ele>
        <time>2020-07-08T13:25:49Z</time>
      </trkpt>
      <trkpt lat="50.12867" lon="3.68399">
        <ele>140.97</ele>
        <time>2020-07-08T13:25:50Z</time>
      </trkpt>
      <trkpt lat="50.12865" lon="3.68395">
        <ele>140.97</ele>
        <time>2020-07-08T13:25:51Z</time>
      </trkpt>
      <trkpt lat="50.12861" lon="3.68392">
        <ele>140.97</ele>
        <time>2020-07-08T13:25:52Z</time>
      </trkpt>
      <trkpt lat="50.12856" lon="3.68391">
        <ele>140.97</ele>
        <time>2020-07-08T13:25:53Z</time>
      </trkpt>
      <trkpt lat="50.1285" lon="3.68396">
        <ele>140.97</ele>
        <time>2020-07-08T13:25:54Z</time>
      </trkpt>
      <trkpt lat="50.12848" lon="3.684">
        <ele>140.97</ele>
        <time>2020-07-08T13:25:55Z</time>
      </trkpt>
      <trkpt lat="50.12844" lon="3.68406">
        <ele>139.05</ele>
        <time>2020-07-08T13:25:56Z</time>
      </trkpt>
      <trkpt lat="50.12839" lon="3.68412">
        <ele>139.05</ele>
        <time>2020-07-08T13:25:57Z</time>
      </trkpt>
      <trkpt lat="50.12835" lon="3.68418">
        <ele>139.05</ele>
        <time>2020-07-08T13:25:58Z</time>
      </trkpt>
      <trkpt lat="50.12815" lon="3.68435">
        <ele>138.57</ele>
        <time>2020-07-08T13:26:02Z</time>
      </trkpt>
      <trkpt lat="50.12809" lon="3.68436">
        <ele>138.57</ele>
        <time>2020-07-08T13:26:03Z</time>
      </trkpt>
      <trkpt lat="50.12804" lon="3.68433">
        <ele>138.57</ele>
        <time>2020-07-08T13:26:04Z</time>
      </trkpt>
      <trkpt lat="50.12799" lon="3.68429">
        <ele>138.57</ele>
        <time>2020-07-08T13:26:05Z</time>
      </trkpt>
      <trkpt lat="50.12796" lon="3.68423">
        <ele>138.57</ele>
        <time>2020-07-08T13:26:06Z</time>
      </trkpt>
      <trkpt lat="50.12793" lon="3.68416">
        <ele>137.61</ele>
        <time>2020-07-08T13:26:07Z</time>
      </trkpt>
      <trkpt lat="50.12791" lon="3.6841">
        <ele>137.61</ele>
        <time>2020-07-08T13:26:08Z</time>
      </trkpt>
      <trkpt lat="50.12788" lon="3.68403">
        <ele>137.61</ele>
        <time>2020-07-08T13:26:09Z</time>
      </trkpt>
      <trkpt lat="50.12749" lon="3.68285">
        <ele>137.13</ele>
        <time>2020-07-08T13:26:25Z</time>
      </trkpt>
      <trkpt lat="50.12742" lon="3.68262">
        <ele>135.68</ele>
        <time>2020-07-08T13:26:28Z</time>
      </trkpt>
      <trkpt lat="50.12737" lon="3.68246">
        <ele>137.13</ele>
        <time>2020-07-08T13:26:30Z</time>
      </trkpt>
      <trkpt lat="50.12735" lon="3.68239">
        <ele>137.13</ele>
        <time>2020-07-08T13:26:31Z</time>
      </trkpt>
      <trkpt lat="50.12714" lon="3.68185">
        <ele>137.13</ele>
        <time>2020-07-08T13:26:39Z</time>
      </trkpt>
      <trkpt lat="50.12673" lon="3.68098">
        <ele>135.68</ele>
        <time>2020-07-08T13:26:52Z</time>
      </trkpt>
      <trkpt lat="50.12666" lon="3.68083">
        <ele>135.68</ele>
        <time>2020-07-08T13:26:54Z</time>
      </trkpt>
      <trkpt lat="50.12619" lon="3.67984">
        <ele>134.24</ele>
        <time>2020-07-08T13:27:08Z</time>
      </trkpt>
      <trkpt lat="50.12573" lon="3.67901">
        <ele>134.24</ele>
        <time>2020-07-08T13:27:18Z</time>
      </trkpt>
      <trkpt lat="50.12568" lon="3.67896">
        <ele>134.24</ele>
        <time>2020-07-08T13:27:19Z</time>
      </trkpt>
      <trkpt lat="50.12561" lon="3.67892">
        <ele>134.24</ele>
        <time>2020-07-08T13:27:20Z</time>
      </trkpt>
      <trkpt lat="50.12511" lon="3.67849">
        <ele>134.24</ele>
        <time>2020-07-08T13:27:30Z</time>
      </trkpt>
      <trkpt lat="50.12501" lon="3.67839">
        <ele>134.24</ele>
        <time>2020-07-08T13:27:33Z</time>
      </trkpt>
      <trkpt lat="50.12498" lon="3.67835">
        <ele>134.24</ele>
        <time>2020-07-08T13:27:34Z</time>
      </trkpt>
      <trkpt lat="50.12494" lon="3.67832">
        <ele>134.24</ele>
        <time>2020-07-08T13:27:35Z</time>
      </trkpt>
      <trkpt lat="50.12487" lon="3.67825">
        <ele>134.24</ele>
        <time>2020-07-08T13:27:37Z</time>
      </trkpt>
      <trkpt lat="50.12485" lon="3.67821">
        <ele>134.24</ele>
        <time>2020-07-08T13:27:38Z</time>
      </trkpt>
      <trkpt lat="50.12482" lon="3.67817">
        <ele>134.24</ele>
        <time>2020-07-08T13:27:39Z</time>
      </trkpt>
      <trkpt lat="50.1248" lon="3.67814">
        <ele>134.24</ele>
        <time>2020-07-08T13:27:40Z</time>
      </trkpt>
      <trkpt lat="50.12478" lon="3.67814">
        <ele>134.24</ele>
        <time>2020-07-08T13:27:41Z</time>
      </trkpt>
      <trkpt lat="50.12476" lon="3.67814">
        <ele>134.24</ele>
        <time>2020-07-08T13:27:42Z</time>
      </trkpt>
      <trkpt lat="50.12474" lon="3.67815">
        <ele>134.24</ele>
        <time>2020-07-08T13:27:43Z</time>
      </trkpt>
      <trkpt lat="50.12472" lon="3.67816">
        <ele>134.24</ele>
        <time>2020-07-08T13:27:44Z</time>
      </trkpt>
      <trkpt lat="50.12469" lon="3.67816">
        <ele>134.24</ele>
        <time>2020-07-08T13:27:45Z</time>
      </trkpt>
      <trkpt lat="50.12465" lon="3.67816">
        <ele>134.24</ele>
        <time>2020-07-08T13:27:46Z</time>
      </trkpt>
      <trkpt lat="50.12461" lon="3.67816">
        <ele>132.8</ele>
        <time>2020-07-08T13:27:47Z</time>
      </trkpt>
      <trkpt lat="50.12459" lon="3.67817">
        <ele>133.28</ele>
        <time>2020-07-08T13:27:48Z</time>
      </trkpt>
      <trkpt lat="50.12457" lon="3.67817">
        <ele>132.8</ele>
        <time>2020-07-08T13:27:49Z</time>
      </trkpt>
      <trkpt lat="50.12455" lon="3.67816">
        <ele>132.8</ele>
        <time>2020-07-08T13:27:50Z</time>
      </trkpt>
      <trkpt lat="50.12454" lon="3.67817">
        <ele>134.72</ele>
        <time>2020-07-08T13:27:54Z</time>
      </trkpt>
    </trkseg>
  </trk>
</gpx>